sensor_id;sensor_type;location;lat;lon;timestamp;P1;durP1;ratioP1;P2;durP2;ratioP2
11016;SDS011;54687;50.800;6.772;2022-09-20T00:00:33;5.50;;;2.13;;
11016;SDS011;54687;50.800;6.772;2022-09-20T00:03:00;5.82;;;1.90;;
11016;SDS011;54687;50.800;6.772;2022-09-20T00:05:27;5.95;;;2.80;;
11016;SDS011;54687;50.800;6.772;2022-09-20T00:07:55;4.75;;;2.13;;
11016;SDS011;54687;50.800;6.772;2022-09-20T00:10:22;3.85;;;2.10;;
11016;SDS011;54687;50.800;6.772;2022-09-20T00:12:49;3.80;;;1.92;;
11016;SDS011;54687;50.800;6.772;2022-09-20T00:15:15;4.45;;;2.13;;
11016;SDS011;54687;50.800;6.772;2022-09-20T00:17:43;5.68;;;2.60;;
11016;SDS011;54687;50.800;6.772;2022-09-20T00:20:10;4.43;;;2.55;;
11016;SDS011;54687;50.800;6.772;2022-09-20T00:22:37;4.00;;;2.25;;
11016;SDS011;54687;50.800;6.772;2022-09-20T00:25:07;5.55;;;2.38;;
11016;SDS011;54687;50.800;6.772;2022-09-20T00:27:34;4.95;;;2.38;;
11016;SDS011;54687;50.800;6.772;2022-09-20T00:30:00;5.28;;;1.92;;
11016;SDS011;54687;50.800;6.772;2022-09-20T00:32:27;5.38;;;2.47;;
11016;SDS011;54687;50.800;6.772;2022-09-20T00:34:54;4.40;;;2.08;;
11016;SDS011;54687;50.800;6.772;2022-09-20T00:37:31;3.40;;;2.35;;
11016;SDS011;54687;50.800;6.772;2022-09-20T00:39:58;5.50;;;2.60;;
11016;SDS011;54687;50.800;6.772;2022-09-20T00:42:27;6.60;;;2.78;;
11016;SDS011;54687;50.800;6.772;2022-09-20T00:44:56;3.85;;;2.13;;
11016;SDS011;54687;50.800;6.772;2022-09-20T00:47:25;5.63;;;2.67;;
11016;SDS011;54687;50.800;6.772;2022-09-20T00:50:02;5.05;;;2.33;;
11016;SDS011;54687;50.800;6.772;2022-09-20T00:52:37;7.57;;;2.80;;
11016;SDS011;54687;50.800;6.772;2022-09-20T00:55:05;4.50;;;2.30;;
11016;SDS011;54687;50.800;6.772;2022-09-20T00:57:35;4.43;;;2.60;;
11016;SDS011;54687;50.800;6.772;2022-09-20T01:00:03;5.25;;;2.70;;
11016;SDS011;54687;50.800;6.772;2022-09-20T01:02:33;4.53;;;2.55;;
11016;SDS011;54687;50.800;6.772;2022-09-20T01:05:01;5.68;;;2.85;;
11016;SDS011;54687;50.800;6.772;2022-09-20T01:07:28;5.18;;;2.70;;
11016;SDS011;54687;50.800;6.772;2022-09-20T01:09:55;7.68;;;2.70;;
11016;SDS011;54687;50.800;6.772;2022-09-20T01:12:23;6.35;;;2.42;;
11016;SDS011;54687;50.800;6.772;2022-09-20T01:14:54;5.85;;;2.67;;
11016;SDS011;54687;50.800;6.772;2022-09-20T01:17:23;5.47;;;2.50;;
11016;SDS011;54687;50.800;6.772;2022-09-20T01:19:56;7.10;;;3.17;;
11016;SDS011;54687;50.800;6.772;2022-09-20T01:22:34;5.60;;;2.70;;
11016;SDS011;54687;50.800;6.772;2022-09-20T01:25:09;6.82;;;3.00;;
11016;SDS011;54687;50.800;6.772;2022-09-20T01:27:42;6.35;;;2.72;;
11016;SDS011;54687;50.800;6.772;2022-09-20T01:30:10;3.55;;;2.42;;
11016;SDS011;54687;50.800;6.772;2022-09-20T01:32:44;6.75;;;2.90;;
11016;SDS011;54687;50.800;6.772;2022-09-20T01:35:17;5.22;;;2.92;;
11016;SDS011;54687;50.800;6.772;2022-09-20T01:37:51;5.68;;;2.85;;
11016;SDS011;54687;50.800;6.772;2022-09-20T01:40:29;4.75;;;2.78;;
11016;SDS011;54687;50.800;6.772;2022-09-20T01:43:08;6.68;;;3.13;;
11016;SDS011;54687;50.800;6.772;2022-09-20T01:45:44;5.57;;;2.80;;
11016;SDS011;54687;50.800;6.772;2022-09-20T01:48:17;4.85;;;2.58;;
11016;SDS011;54687;50.800;6.772;2022-09-20T01:51:10;6.55;;;3.30;;
11016;SDS011;54687;50.800;6.772;2022-09-20T01:54:07;5.35;;;3.00;;
11016;SDS011;54687;50.800;6.772;2022-09-20T01:57:12;6.38;;;2.92;;
11016;SDS011;54687;50.800;6.772;2022-09-20T02:00:09;11.27;;;3.28;;
11016;SDS011;54687;50.800;6.772;2022-09-20T02:02:47;5.30;;;2.65;;
11016;SDS011;54687;50.800;6.772;2022-09-20T02:08:37;4.95;;;2.58;;
11016;SDS011;54687;50.800;6.772;2022-09-20T02:11:24;4.35;;;2.50;;
11016;SDS011;54687;50.800;6.772;2022-09-20T02:14:03;4.85;;;2.38;;
11016;SDS011;54687;50.800;6.772;2022-09-20T02:16:49;6.10;;;2.50;;
11016;SDS011;54687;50.800;6.772;2022-09-20T02:19:32;3.30;;;2.25;;
11016;SDS011;54687;50.800;6.772;2022-09-20T02:22:14;4.68;;;2.63;;
11016;SDS011;54687;50.800;6.772;2022-09-20T02:24:49;5.32;;;3.10;;
11016;SDS011;54687;50.800;6.772;2022-09-20T02:27:22;4.53;;;2.63;;
11016;SDS011;54687;50.800;6.772;2022-09-20T02:32:51;5.45;;;2.45;;
11016;SDS011;54687;50.800;6.772;2022-09-20T02:35:32;6.00;;;2.60;;
11016;SDS011;54687;50.800;6.772;2022-09-20T02:38:15;6.10;;;2.53;;
11016;SDS011;54687;50.800;6.772;2022-09-20T02:41:04;6.18;;;2.40;;
11016;SDS011;54687;50.800;6.772;2022-09-20T02:43:49;6.15;;;2.38;;
11016;SDS011;54687;50.800;6.772;2022-09-20T02:46:23;3.53;;;1.85;;
11016;SDS011;54687;50.800;6.772;2022-09-20T02:48:57;6.20;;;2.88;;
11016;SDS011;54687;50.800;6.772;2022-09-20T02:51:30;3.75;;;2.05;;
11016;SDS011;54687;50.800;6.772;2022-09-20T02:54:05;6.03;;;2.45;;
11016;SDS011;54687;50.800;6.772;2022-09-20T02:56:46;5.95;;;2.78;;
11016;SDS011;54687;50.800;6.772;2022-09-20T02:59:23;7.00;;;2.25;;
11016;SDS011;54687;50.800;6.772;2022-09-20T03:01:58;5.10;;;2.25;;
11016;SDS011;54687;50.800;6.772;2022-09-20T03:04:36;4.22;;;2.42;;
11016;SDS011;54687;50.800;6.772;2022-09-20T03:07:16;4.40;;;2.42;;
11016;SDS011;54687;50.800;6.772;2022-09-20T03:09:51;4.70;;;2.35;;
11016;SDS011;54687;50.800;6.772;2022-09-20T03:12:29;3.53;;;2.17;;
11016;SDS011;54687;50.800;6.772;2022-09-20T03:15:06;5.80;;;2.55;;
11016;SDS011;54687;50.800;6.772;2022-09-20T03:17:46;4.50;;;2.28;;
11016;SDS011;54687;50.800;6.772;2022-09-20T03:20:26;4.32;;;2.42;;
11016;SDS011;54687;50.800;6.772;2022-09-20T03:23:00;5.20;;;2.38;;
11016;SDS011;54687;50.800;6.772;2022-09-20T03:25:43;6.22;;;2.80;;
11016;SDS011;54687;50.800;6.772;2022-09-20T03:28:23;3.78;;;2.58;;
11016;SDS011;54687;50.800;6.772;2022-09-20T03:31:05;6.57;;;2.70;;
11016;SDS011;54687;50.800;6.772;2022-09-20T03:33:43;6.93;;;2.75;;
11016;SDS011;54687;50.800;6.772;2022-09-20T03:36:22;6.13;;;2.63;;
11016;SDS011;54687;50.800;6.772;2022-09-20T03:39:02;4.45;;;2.40;;
11016;SDS011;54687;50.800;6.772;2022-09-20T03:41:44;5.85;;;2.65;;
11016;SDS011;54687;50.800;6.772;2022-09-20T03:44:26;7.30;;;2.75;;
11016;SDS011;54687;50.800;6.772;2022-09-20T03:47:12;9.13;;;2.88;;
11016;SDS011;54687;50.800;6.772;2022-09-20T03:49:52;8.00;;;2.90;;
11016;SDS011;54687;50.800;6.772;2022-09-20T03:52:40;5.25;;;2.70;;
11016;SDS011;54687;50.800;6.772;2022-09-20T03:55:36;5.28;;;2.30;;
11016;SDS011;54687;50.800;6.772;2022-09-20T03:58:27;8.10;;;2.90;;
11016;SDS011;54687;50.800;6.772;2022-09-20T04:01:15;4.63;;;2.50;;
11016;SDS011;54687;50.800;6.772;2022-09-20T04:03:56;4.30;;;2.40;;
11016;SDS011;54687;50.800;6.772;2022-09-20T04:06:46;4.43;;;2.33;;
11016;SDS011;54687;50.800;6.772;2022-09-20T04:12:27;5.43;;;2.50;;
11016;SDS011;54687;50.800;6.772;2022-09-20T04:15:00;4.60;;;2.65;;
11016;SDS011;54687;50.800;6.772;2022-09-20T04:17:41;4.88;;;2.40;;
11016;SDS011;54687;50.800;6.772;2022-09-20T04:20:15;4.93;;;2.40;;
11016;SDS011;54687;50.800;6.772;2022-09-20T04:22:46;5.72;;;2.47;;
11016;SDS011;54687;50.800;6.772;2022-09-20T04:25:18;4.50;;;2.70;;
11016;SDS011;54687;50.800;6.772;2022-09-20T04:27:49;3.90;;;2.40;;
11016;SDS011;54687;50.800;6.772;2022-09-20T04:30:20;3.50;;;2.30;;
11016;SDS011;54687;50.800;6.772;2022-09-20T04:32:54;3.53;;;2.63;;
11016;SDS011;54687;50.800;6.772;2022-09-20T04:35:30;4.03;;;2.03;;
11016;SDS011;54687;50.800;6.772;2022-09-20T04:38:24;4.55;;;2.63;;
11016;SDS011;54687;50.800;6.772;2022-09-20T04:41:04;3.15;;;2.10;;
11016;SDS011;54687;50.800;6.772;2022-09-20T04:46:46;4.28;;;2.00;;
11016;SDS011;54687;50.800;6.772;2022-09-20T04:49:39;5.05;;;2.15;;
11016;SDS011;54687;50.800;6.772;2022-09-20T04:52:36;4.15;;;2.30;;
11016;SDS011;54687;50.800;6.772;2022-09-20T04:55:41;4.07;;;2.58;;
11016;SDS011;54687;50.800;6.772;2022-09-20T04:58:32;4.22;;;2.58;;
11016;SDS011;54687;50.800;6.772;2022-09-20T05:04:19;4.78;;;2.50;;
11016;SDS011;54687;50.800;6.772;2022-09-20T05:07:17;6.43;;;2.90;;
11016;SDS011;54687;50.800;6.772;2022-09-20T05:10:04;3.53;;;2.80;;
11016;SDS011;54687;50.800;6.772;2022-09-20T05:13:00;5.65;;;2.90;;
11016;SDS011;54687;50.800;6.772;2022-09-20T05:15:40;4.88;;;2.67;;
11016;SDS011;54687;50.800;6.772;2022-09-20T05:18:25;6.40;;;3.13;;
11016;SDS011;54687;50.800;6.772;2022-09-20T05:21:12;4.28;;;2.63;;
11016;SDS011;54687;50.800;6.772;2022-09-20T05:24:09;5.97;;;2.80;;
11016;SDS011;54687;50.800;6.772;2022-09-20T05:26:54;4.72;;;2.50;;
11016;SDS011;54687;50.800;6.772;2022-09-20T05:29:30;3.95;;;3.03;;
11016;SDS011;54687;50.800;6.772;2022-09-20T05:32:07;3.45;;;2.85;;
11016;SDS011;54687;50.800;6.772;2022-09-20T05:34:43;5.05;;;2.95;;
11016;SDS011;54687;50.800;6.772;2022-09-20T05:37:21;7.72;;;2.88;;
11016;SDS011;54687;50.800;6.772;2022-09-20T05:39:58;5.78;;;2.90;;
11016;SDS011;54687;50.800;6.772;2022-09-20T05:42:34;4.18;;;2.97;;
11016;SDS011;54687;50.800;6.772;2022-09-20T05:45:15;3.42;;;2.70;;
11016;SDS011;54687;50.800;6.772;2022-09-20T05:47:51;7.07;;;3.20;;
11016;SDS011;54687;50.800;6.772;2022-09-20T05:50:28;6.18;;;3.03;;
11016;SDS011;54687;50.800;6.772;2022-09-20T05:53:30;3.85;;;2.70;;
11016;SDS011;54687;50.800;6.772;2022-09-20T05:56:11;8.07;;;3.90;;
11016;SDS011;54687;50.800;6.772;2022-09-20T05:59:01;9.93;;;3.97;;
11016;SDS011;54687;50.800;6.772;2022-09-20T06:01:40;6.47;;;3.72;;
11016;SDS011;54687;50.800;6.772;2022-09-20T06:04:14;10.27;;;4.97;;
11016;SDS011;54687;50.800;6.772;2022-09-20T06:06:47;9.38;;;4.25;;
11016;SDS011;54687;50.800;6.772;2022-09-20T06:12:31;8.35;;;4.70;;
11016;SDS011;54687;50.800;6.772;2022-09-20T06:15:13;8.38;;;4.75;;
11016;SDS011;54687;50.800;6.772;2022-09-20T06:17:47;7.53;;;3.78;;
11016;SDS011;54687;50.800;6.772;2022-09-20T06:20:25;10.25;;;4.53;;
11016;SDS011;54687;50.800;6.772;2022-09-20T06:22:56;7.45;;;4.63;;
11016;SDS011;54687;50.800;6.772;2022-09-20T06:25:28;7.13;;;4.70;;
11016;SDS011;54687;50.800;6.772;2022-09-20T06:28:00;8.27;;;5.18;;
11016;SDS011;54687;50.800;6.772;2022-09-20T06:30:34;7.20;;;4.50;;
11016;SDS011;54687;50.800;6.772;2022-09-20T06:33:11;6.57;;;4.38;;
11016;SDS011;54687;50.800;6.772;2022-09-20T06:35:43;8.18;;;5.47;;
11016;SDS011;54687;50.800;6.772;2022-09-20T06:38:17;10.85;;;5.20;;
11016;SDS011;54687;50.800;6.772;2022-09-20T06:41:21;11.48;;;5.75;;
11016;SDS011;54687;50.800;6.772;2022-09-20T06:43:55;9.07;;;5.50;;
11016;SDS011;54687;50.800;6.772;2022-09-20T06:46:23;5.60;;;5.10;;
11016;SDS011;54687;50.800;6.772;2022-09-20T06:48:50;8.57;;;6.25;;
11016;SDS011;54687;50.800;6.772;2022-09-20T06:51:19;8.93;;;6.57;;
11016;SDS011;54687;50.800;6.772;2022-09-20T06:53:46;7.03;;;6.10;;
11016;SDS011;54687;50.800;6.772;2022-09-20T06:56:14;10.18;;;6.25;;
11016;SDS011;54687;50.800;6.772;2022-09-20T06:58:43;8.45;;;6.82;;
11016;SDS011;54687;50.800;6.772;2022-09-20T07:01:09;8.70;;;7.32;;
11016;SDS011;54687;50.800;6.772;2022-09-20T07:03:37;11.38;;;8.35;;
11016;SDS011;54687;50.800;6.772;2022-09-20T07:06:04;12.15;;;7.15;;
11016;SDS011;54687;50.800;6.772;2022-09-20T07:08:33;8.60;;;7.72;;
11016;SDS011;54687;50.800;6.772;2022-09-20T07:11:04;11.98;;;8.27;;
11016;SDS011;54687;50.800;6.772;2022-09-20T07:13:33;11.05;;;7.10;;
11016;SDS011;54687;50.800;6.772;2022-09-20T07:16:00;9.93;;;6.40;;
11016;SDS011;54687;50.800;6.772;2022-09-20T07:18:28;10.52;;;6.82;;
11016;SDS011;54687;50.800;6.772;2022-09-20T07:20:55;11.35;;;6.68;;
11016;SDS011;54687;50.800;6.772;2022-09-20T07:23:22;11.23;;;6.03;;
11016;SDS011;54687;50.800;6.772;2022-09-20T07:25:51;10.77;;;7.18;;
11016;SDS011;54687;50.800;6.772;2022-09-20T07:28:18;11.00;;;6.43;;
11016;SDS011;54687;50.800;6.772;2022-09-20T07:30:45;12.18;;;5.68;;
11016;SDS011;54687;50.800;6.772;2022-09-20T07:33:12;14.20;;;5.68;;
11016;SDS011;54687;50.800;6.772;2022-09-20T07:35:43;12.63;;;5.70;;
11016;SDS011;54687;50.800;6.772;2022-09-20T07:38:11;9.57;;;4.85;;
11016;SDS011;54687;50.800;6.772;2022-09-20T07:40:38;12.57;;;5.45;;
11016;SDS011;54687;50.800;6.772;2022-09-20T07:43:06;6.25;;;4.32;;
11016;SDS011;54687;50.800;6.772;2022-09-20T07:45:35;8.30;;;4.97;;
11016;SDS011;54687;50.800;6.772;2022-09-20T07:48:03;9.43;;;4.93;;
11016;SDS011;54687;50.800;6.772;2022-09-20T07:50:31;8.50;;;4.70;;
11016;SDS011;54687;50.800;6.772;2022-09-20T07:52:58;11.77;;;5.05;;
11016;SDS011;54687;50.800;6.772;2022-09-20T07:55:25;6.10;;;3.78;;
11016;SDS011;54687;50.800;6.772;2022-09-20T07:57:51;7.82;;;4.30;;
11016;SDS011;54687;50.800;6.772;2022-09-20T08:00:20;12.85;;;4.00;;
11016;SDS011;54687;50.800;6.772;2022-09-20T08:02:47;6.25;;;3.53;;
11016;SDS011;54687;50.800;6.772;2022-09-20T08:05:14;8.32;;;3.75;;
11016;SDS011;54687;50.800;6.772;2022-09-20T08:07:40;7.38;;;3.78;;
11016;SDS011;54687;50.800;6.772;2022-09-20T08:10:07;6.13;;;3.60;;
11016;SDS011;54687;50.800;6.772;2022-09-20T08:12:34;6.88;;;3.72;;
11016;SDS011;54687;50.800;6.772;2022-09-20T08:15:01;7.07;;;4.07;;
11016;SDS011;54687;50.800;6.772;2022-09-20T08:17:31;7.30;;;3.50;;
11016;SDS011;54687;50.800;6.772;2022-09-20T08:19:57;10.57;;;3.38;;
11016;SDS011;54687;50.800;6.772;2022-09-20T08:22:24;5.43;;;3.03;;
11016;SDS011;54687;50.800;6.772;2022-09-20T08:24:52;5.35;;;2.38;;
11016;SDS011;54687;50.800;6.772;2022-09-20T08:27:18;3.80;;;2.58;;
11016;SDS011;54687;50.800;6.772;2022-09-20T08:29:45;7.90;;;3.15;;
11016;SDS011;54687;50.800;6.772;2022-09-20T08:32:11;6.30;;;2.88;;
11016;SDS011;54687;50.800;6.772;2022-09-20T08:34:39;6.28;;;2.63;;
11016;SDS011;54687;50.800;6.772;2022-09-20T08:37:06;7.53;;;3.05;;
11016;SDS011;54687;50.800;6.772;2022-09-20T08:39:33;7.95;;;2.88;;
11016;SDS011;54687;50.800;6.772;2022-09-20T08:42:02;8.18;;;2.95;;
11016;SDS011;54687;50.800;6.772;2022-09-20T08:44:39;4.65;;;2.10;;
11016;SDS011;54687;50.800;6.772;2022-09-20T08:47:16;6.10;;;2.15;;
11016;SDS011;54687;50.800;6.772;2022-09-20T08:49:47;5.82;;;2.40;;
11016;SDS011;54687;50.800;6.772;2022-09-20T08:52:21;4.88;;;2.78;;
11016;SDS011;54687;50.800;6.772;2022-09-20T08:54:52;6.82;;;2.40;;
11016;SDS011;54687;50.800;6.772;2022-09-20T08:57:22;6.22;;;2.50;;
11016;SDS011;54687;50.800;6.772;2022-09-20T08:59:52;5.50;;;2.50;;
11016;SDS011;54687;50.800;6.772;2022-09-20T09:02:20;4.32;;;2.20;;
11016;SDS011;54687;50.800;6.772;2022-09-20T09:04:48;5.70;;;2.20;;
11016;SDS011;54687;50.800;6.772;2022-09-20T09:07:17;7.75;;;2.33;;
11016;SDS011;54687;50.800;6.772;2022-09-20T09:09:46;5.47;;;2.08;;
11016;SDS011;54687;50.800;6.772;2022-09-20T09:12:17;6.45;;;2.20;;
11016;SDS011;54687;50.800;6.772;2022-09-20T09:14:46;6.05;;;2.15;;
11016;SDS011;54687;50.800;6.772;2022-09-20T09:17:19;10.38;;;2.13;;
11016;SDS011;54687;50.800;6.772;2022-09-20T09:19:51;5.90;;;2.17;;
11016;SDS011;54687;50.800;6.772;2022-09-20T09:22:20;4.07;;;1.98;;
11016;SDS011;54687;50.800;6.772;2022-09-20T09:27:34;6.93;;;2.00;;
11016;SDS011;54687;50.800;6.772;2022-09-20T09:30:18;8.00;;;2.88;;
11016;SDS011;54687;50.800;6.772;2022-09-20T09:32:46;5.35;;;2.67;;
11016;SDS011;54687;50.800;6.772;2022-09-20T09:35:23;5.10;;;2.50;;
11016;SDS011;54687;50.800;6.772;2022-09-20T09:37:54;5.65;;;2.38;;
11016;SDS011;54687;50.800;6.772;2022-09-20T09:40:21;4.95;;;2.40;;
11016;SDS011;54687;50.800;6.772;2022-09-20T09:42:50;10.73;;;3.95;;
11016;SDS011;54687;50.800;6.772;2022-09-20T09:45:25;5.88;;;2.40;;
11016;SDS011;54687;50.800;6.772;2022-09-20T09:47:54;4.07;;;2.17;;
11016;SDS011;54687;50.800;6.772;2022-09-20T09:50:24;5.05;;;2.53;;
11016;SDS011;54687;50.800;6.772;2022-09-20T09:53:04;6.10;;;2.40;;
11016;SDS011;54687;50.800;6.772;2022-09-20T09:55:41;6.10;;;3.30;;
11016;SDS011;54687;50.800;6.772;2022-09-20T09:58:38;5.10;;;2.65;;
11016;SDS011;54687;50.800;6.772;2022-09-20T10:01:18;5.32;;;2.28;;
11016;SDS011;54687;50.800;6.772;2022-09-20T10:03:57;4.53;;;1.95;;
11016;SDS011;54687;50.800;6.772;2022-09-20T10:06:33;5.13;;;2.63;;
11016;SDS011;54687;50.800;6.772;2022-09-20T10:09:20;3.85;;;1.90;;
11016;SDS011;54687;50.800;6.772;2022-09-20T10:12:02;4.57;;;1.80;;
11016;SDS011;54687;50.800;6.772;2022-09-20T10:14:43;3.30;;;1.75;;
11016;SDS011;54687;50.800;6.772;2022-09-20T10:17:25;5.53;;;2.42;;
11016;SDS011;54687;50.800;6.772;2022-09-20T10:20:03;4.95;;;2.10;;
11016;SDS011;54687;50.800;6.772;2022-09-20T10:22:47;4.63;;;1.95;;
11016;SDS011;54687;50.800;6.772;2022-09-20T10:25:24;4.30;;;2.17;;
11016;SDS011;54687;50.800;6.772;2022-09-20T10:28:03;8.52;;;2.78;;
11016;SDS011;54687;50.800;6.772;2022-09-20T10:30:44;7.63;;;2.70;;
11016;SDS011;54687;50.800;6.772;2022-09-20T10:33:22;7.38;;;2.50;;
11016;SDS011;54687;50.800;6.772;2022-09-20T10:36:02;6.57;;;2.55;;
11016;SDS011;54687;50.800;6.772;2022-09-20T10:38:39;5.28;;;2.20;;
11016;SDS011;54687;50.800;6.772;2022-09-20T10:41:16;4.95;;;2.17;;
11016;SDS011;54687;50.800;6.772;2022-09-20T10:44:13;3.60;;;2.40;;
11016;SDS011;54687;50.800;6.772;2022-09-20T10:46:54;7.88;;;3.65;;
11016;SDS011;54687;50.800;6.772;2022-09-20T10:49:26;6.35;;;3.22;;
11016;SDS011;54687;50.800;6.772;2022-09-20T10:52:07;5.93;;;3.50;;
11016;SDS011;54687;50.800;6.772;2022-09-20T10:54:46;5.68;;;2.40;;
11016;SDS011;54687;50.800;6.772;2022-09-20T10:57:29;4.53;;;2.05;;
11016;SDS011;54687;50.800;6.772;2022-09-20T11:00:19;5.68;;;2.70;;
11016;SDS011;54687;50.800;6.772;2022-09-20T11:02:52;4.65;;;2.30;;
11016;SDS011;54687;50.800;6.772;2022-09-20T11:05:39;4.93;;;2.03;;
11016;SDS011;54687;50.800;6.772;2022-09-20T11:08:19;5.05;;;2.03;;
11016;SDS011;54687;50.800;6.772;2022-09-20T11:10:54;4.70;;;2.40;;
11016;SDS011;54687;50.800;6.772;2022-09-20T11:13:24;3.90;;;2.25;;
11016;SDS011;54687;50.800;6.772;2022-09-20T11:15:56;8.23;;;4.63;;
11016;SDS011;54687;50.800;6.772;2022-09-20T11:18:31;4.65;;;2.45;;
11016;SDS011;54687;50.800;6.772;2022-09-20T11:21:05;5.35;;;2.50;;
11016;SDS011;54687;50.800;6.772;2022-09-20T11:23:42;8.10;;;2.55;;
11016;SDS011;54687;50.800;6.772;2022-09-20T11:26:18;4.82;;;2.35;;
11016;SDS011;54687;50.800;6.772;2022-09-20T11:28:51;3.15;;;2.08;;
11016;SDS011;54687;50.800;6.772;2022-09-20T11:31:23;6.43;;;2.00;;
11016;SDS011;54687;50.800;6.772;2022-09-20T11:33:54;5.70;;;1.90;;
11016;SDS011;54687;50.800;6.772;2022-09-20T11:36:27;4.18;;;1.73;;
11016;SDS011;54687;50.800;6.772;2022-09-20T11:38:57;4.43;;;1.90;;
11016;SDS011;54687;50.800;6.772;2022-09-20T11:41:30;5.20;;;1.80;;
11016;SDS011;54687;50.800;6.772;2022-09-20T11:43:58;3.75;;;1.70;;
11016;SDS011;54687;50.800;6.772;2022-09-20T11:46:32;7.50;;;2.97;;
11016;SDS011;54687;50.800;6.772;2022-09-20T11:49:05;6.35;;;2.58;;
11016;SDS011;54687;50.800;6.772;2022-09-20T11:51:47;5.38;;;1.85;;
11016;SDS011;54687;50.800;6.772;2022-09-20T11:57:28;8.00;;;4.00;;
11016;SDS011;54687;50.800;6.772;2022-09-20T11:59:55;7.00;;;2.67;;
11016;SDS011;54687;50.800;6.772;2022-09-20T12:02:30;2.70;;;1.95;;
11016;SDS011;54687;50.800;6.772;2022-09-20T12:05:03;4.97;;;2.53;;
11016;SDS011;54687;50.800;6.772;2022-09-20T12:07:33;3.72;;;2.92;;
11016;SDS011;54687;50.800;6.772;2022-09-20T12:10:02;5.82;;;2.53;;
11016;SDS011;54687;50.800;6.772;2022-09-20T12:12:37;2.95;;;2.08;;
11016;SDS011;54687;50.800;6.772;2022-09-20T12:15:07;2.42;;;1.95;;
11016;SDS011;54687;50.800;6.772;2022-09-20T12:18:11;4.88;;;2.30;;
11016;SDS011;54687;50.800;6.772;2022-09-20T12:21:02;3.30;;;1.92;;
11016;SDS011;54687;50.800;6.772;2022-09-20T12:23:58;4.78;;;2.50;;
11016;SDS011;54687;50.800;6.772;2022-09-20T12:26:35;4.07;;;1.92;;
11016;SDS011;54687;50.800;6.772;2022-09-20T12:32:33;3.08;;;1.92;;
11016;SDS011;54687;50.800;6.772;2022-09-20T12:38:30;4.35;;;2.28;;
11016;SDS011;54687;50.800;6.772;2022-09-20T12:41:01;6.18;;;2.20;;
11016;SDS011;54687;50.800;6.772;2022-09-20T12:43:30;5.70;;;2.40;;
11016;SDS011;54687;50.800;6.772;2022-09-20T12:45:59;7.70;;;2.42;;
11016;SDS011;54687;50.800;6.772;2022-09-20T12:48:28;3.97;;;2.65;;
11016;SDS011;54687;50.800;6.772;2022-09-20T12:51:04;4.90;;;2.60;;
11016;SDS011;54687;50.800;6.772;2022-09-20T12:54:01;5.30;;;2.38;;
11016;SDS011;54687;50.800;6.772;2022-09-20T12:56:32;5.75;;;2.45;;
11016;SDS011;54687;50.800;6.772;2022-09-20T12:59:01;7.47;;;2.30;;
11016;SDS011;54687;50.800;6.772;2022-09-20T13:01:33;4.97;;;2.30;;
11016;SDS011;54687;50.800;6.772;2022-09-20T13:07:41;3.90;;;2.22;;
11016;SDS011;54687;50.800;6.772;2022-09-20T13:10:15;3.60;;;1.92;;
11016;SDS011;54687;50.800;6.772;2022-09-20T13:12:48;5.43;;;2.42;;
11016;SDS011;54687;50.800;6.772;2022-09-20T13:15:19;3.85;;;2.22;;
11016;SDS011;54687;50.800;6.772;2022-09-20T13:17:47;4.80;;;1.90;;
11016;SDS011;54687;50.800;6.772;2022-09-20T13:20:19;5.95;;;1.85;;
11016;SDS011;54687;50.800;6.772;2022-09-20T13:22:52;6.30;;;2.60;;
11016;SDS011;54687;50.800;6.772;2022-09-20T13:25:19;5.18;;;3.90;;
11016;SDS011;54687;50.800;6.772;2022-09-20T13:27:49;4.28;;;2.25;;
11016;SDS011;54687;50.800;6.772;2022-09-20T13:30:20;4.00;;;1.90;;
11016;SDS011;54687;50.800;6.772;2022-09-20T13:32:48;4.07;;;1.70;;
11016;SDS011;54687;50.800;6.772;2022-09-20T13:35:16;3.97;;;1.90;;
11016;SDS011;54687;50.800;6.772;2022-09-20T13:37:50;5.30;;;2.55;;
11016;SDS011;54687;50.800;6.772;2022-09-20T13:40:20;5.10;;;2.42;;
11016;SDS011;54687;50.800;6.772;2022-09-20T13:42:49;5.45;;;2.30;;
11016;SDS011;54687;50.800;6.772;2022-09-20T13:45:17;4.80;;;2.20;;
11016;SDS011;54687;50.800;6.772;2022-09-20T13:47:49;4.43;;;1.60;;
11016;SDS011;54687;50.800;6.772;2022-09-20T13:50:20;5.72;;;1.77;;
11016;SDS011;54687;50.800;6.772;2022-09-20T13:52:48;2.78;;;1.70;;
11016;SDS011;54687;50.800;6.772;2022-09-20T13:58:04;3.95;;;1.55;;
11016;SDS011;54687;50.800;6.772;2022-09-20T14:00:34;3.85;;;1.90;;
11016;SDS011;54687;50.800;6.772;2022-09-20T14:03:03;6.30;;;1.65;;
11016;SDS011;54687;50.800;6.772;2022-09-20T14:05:29;3.50;;;2.00;;
11016;SDS011;54687;50.800;6.772;2022-09-20T14:07:58;2.75;;;1.30;;
11016;SDS011;54687;50.800;6.772;2022-09-20T14:10:30;3.05;;;1.63;;
11016;SDS011;54687;50.800;6.772;2022-09-20T14:13:00;2.08;;;1.20;;
11016;SDS011;54687;50.800;6.772;2022-09-20T14:15:35;3.15;;;1.52;;
11016;SDS011;54687;50.800;6.772;2022-09-20T14:18:04;4.10;;;1.40;;
11016;SDS011;54687;50.800;6.772;2022-09-20T14:20:32;2.45;;;1.63;;
11016;SDS011;54687;50.800;6.772;2022-09-20T14:22:59;3.80;;;1.20;;
11016;SDS011;54687;50.800;6.772;2022-09-20T14:25:28;2.53;;;1.05;;
11016;SDS011;54687;50.800;6.772;2022-09-20T14:28:12;3.10;;;1.30;;
11016;SDS011;54687;50.800;6.772;2022-09-20T14:30:43;3.28;;;1.60;;
11016;SDS011;54687;50.800;6.772;2022-09-20T14:33:13;2.17;;;1.20;;
11016;SDS011;54687;50.800;6.772;2022-09-20T14:35:45;1.95;;;0.98;;
11016;SDS011;54687;50.800;6.772;2022-09-20T14:38:15;2.70;;;1.65;;
11016;SDS011;54687;50.800;6.772;2022-09-20T14:40:47;2.67;;;1.33;;
11016;SDS011;54687;50.800;6.772;2022-09-20T14:43:23;2.80;;;1.60;;
11016;SDS011;54687;50.800;6.772;2022-09-20T14:45:53;2.67;;;1.50;;
11016;SDS011;54687;50.800;6.772;2022-09-20T14:48:32;3.25;;;1.10;;
11016;SDS011;54687;50.800;6.772;2022-09-20T14:51:08;2.55;;;1.30;;
11016;SDS011;54687;50.800;6.772;2022-09-20T14:53:50;3.97;;;1.52;;
11016;SDS011;54687;50.800;6.772;2022-09-20T14:56:26;3.25;;;1.63;;
11016;SDS011;54687;50.800;6.772;2022-09-20T14:59:04;3.45;;;1.60;;
11016;SDS011;54687;50.800;6.772;2022-09-20T15:01:32;3.58;;;1.50;;
11016;SDS011;54687;50.800;6.772;2022-09-20T15:04:04;3.35;;;1.45;;
11016;SDS011;54687;50.800;6.772;2022-09-20T15:06:34;5.63;;;2.05;;
11016;SDS011;54687;50.800;6.772;2022-09-20T15:09:01;3.75;;;1.70;;
11016;SDS011;54687;50.800;6.772;2022-09-20T15:11:28;5.78;;;1.80;;
11016;SDS011;54687;50.800;6.772;2022-09-20T15:13:55;4.03;;;1.35;;
11016;SDS011;54687;50.800;6.772;2022-09-20T15:16:23;8.48;;;2.05;;
11016;SDS011;54687;50.800;6.772;2022-09-20T15:18:49;1.55;;;1.15;;
11016;SDS011;54687;50.800;6.772;2022-09-20T15:21:16;5.18;;;1.65;;
11016;SDS011;54687;50.800;6.772;2022-09-20T15:23:44;1.83;;;1.25;;
11016;SDS011;54687;50.800;6.772;2022-09-20T15:26:10;5.18;;;1.42;;
11016;SDS011;54687;50.800;6.772;2022-09-20T15:28:39;5.07;;;1.60;;
11016;SDS011;54687;50.800;6.772;2022-09-20T15:31:06;4.05;;;1.70;;
11016;SDS011;54687;50.800;6.772;2022-09-20T15:33:34;2.67;;;1.52;;
11016;SDS011;54687;50.800;6.772;2022-09-20T15:36:01;3.75;;;2.00;;
11016;SDS011;54687;50.800;6.772;2022-09-20T15:38:28;4.03;;;1.60;;
11016;SDS011;54687;50.800;6.772;2022-09-20T15:40:55;5.78;;;2.78;;
11016;SDS011;54687;50.800;6.772;2022-09-20T15:43:24;4.80;;;3.08;;
11016;SDS011;54687;50.800;6.772;2022-09-20T15:45:52;5.03;;;1.75;;
11016;SDS011;54687;50.800;6.772;2022-09-20T15:48:20;4.03;;;2.70;;
11016;SDS011;54687;50.800;6.772;2022-09-20T15:51:00;2.45;;;1.40;;
11016;SDS011;54687;50.800;6.772;2022-09-20T15:53:29;4.13;;;1.70;;
11016;SDS011;54687;50.800;6.772;2022-09-20T15:55:57;5.53;;;1.75;;
11016;SDS011;54687;50.800;6.772;2022-09-20T15:58:27;2.03;;;1.17;;
11016;SDS011;54687;50.800;6.772;2022-09-20T16:01:00;2.13;;;1.50;;
11016;SDS011;54687;50.800;6.772;2022-09-20T16:03:27;2.42;;;1.30;;
11016;SDS011;54687;50.800;6.772;2022-09-20T16:06:00;4.25;;;1.50;;
11016;SDS011;54687;50.800;6.772;2022-09-20T16:08:29;1.60;;;1.05;;